BAW285 EGLL-KSFO
Flight info
| Callsign | BAW285 |
|---|---|
| Flight time | N/A |
| Altitude | 36000 |
| Route | ULTIB T420 TNT UN57 POL UN601 RIBEL DCT ASLIB DCT BALIX/M085F360 DCT 64N020W 67N030W 69N040W 70N050W 70N060W/M084F380 DCT ADSAM/N0486F380 DCT 69N070W 68N080W 65N091W 60N101W DCT MEETO Q896 BORIX/N0479F400 Q896 YQL J540 MLP DCT LKV J3 RBL/N0465F390 DCT MRRLO BDEGA4 |
| Aircraft | A388/J-SADE2E3FGHIJ3J4J5M1RWXY/LB1D1 |
Departure
| Time | N/A |
|---|---|
| Airport | London Heathrow Airport (EGLL) |
Arrival
| Time | 2026-05-05 04:15 |
|---|---|
| Airport | San Francisco International Airport (KSFO) |
| Time | Latitude | Longitude | Altitude | Speed | Heading |
|---|---|---|---|---|---|
| 2026-05-05 03:10 | 44.22449 | -118.92728 | 39845 ft | 538 kts | 215° |
| 2026-05-05 03:10 | 44.19344 | -118.95660 | 39847 ft | 539 kts | 215° |
| 2026-05-05 03:11 | 44.13130 | -119.01517 | 39842 ft | 539 kts | 215° |
| 2026-05-05 03:11 | 44.06911 | -119.07362 | 39836 ft | 539 kts | 214° |
| 2026-05-05 03:12 | 44.00682 | -119.13202 | 39835 ft | 539 kts | 214° |
| 2026-05-05 03:12 | 43.94499 | -119.18983 | 39839 ft | 540 kts | 214° |
| 2026-05-05 03:13 | 43.88255 | -119.24806 | 39834 ft | 540 kts | 214° |
| 2026-05-05 03:13 | 43.82011 | -119.30616 | 39834 ft | 540 kts | 214° |
| 2026-05-05 03:14 | 43.75762 | -119.36418 | 39832 ft | 541 kts | 214° |
| 2026-05-05 03:14 | 43.69544 | -119.42172 | 39838 ft | 541 kts | 213° |
| 2026-05-05 03:15 | 43.63246 | -119.47986 | 39828 ft | 541 kts | 213° |
| 2026-05-05 03:15 | 43.57023 | -119.53717 | 39835 ft | 541 kts | 213° |
| 2026-05-05 03:16 | 43.50757 | -119.59472 | 39824 ft | 541 kts | 213° |
| 2026-05-05 03:16 | 43.44489 | -119.65215 | 39820 ft | 541 kts | 213° |
| 2026-05-05 03:17 | 43.38218 | -119.70946 | 39822 ft | 541 kts | 213° |
| 2026-05-05 03:17 | 43.31944 | -119.76666 | 39835 ft | 541 kts | 213° |
| 2026-05-05 03:18 | 43.25673 | -119.82369 | 39836 ft | 540 kts | 213° |
| 2026-05-05 03:18 | 43.19406 | -119.88053 | 39832 ft | 540 kts | 213° |
| 2026-05-05 03:19 | 43.09995 | -119.96562 | 39823 ft | 540 kts | 212° |
| 2026-05-05 03:19 | 43.03730 | -120.02210 | 39849 ft | 539 kts | 212° |
| 2026-05-05 03:20 | 42.97506 | -120.07806 | 39842 ft | 538 kts | 212° |
| 2026-05-05 03:20 | 42.91261 | -120.13408 | 39828 ft | 537 kts | 212° |
| 2026-05-05 03:21 | 42.85007 | -120.19003 | 39824 ft | 537 kts | 212° |
| 2026-05-05 03:21 | 42.78759 | -120.24579 | 39820 ft | 536 kts | 212° |
| 2026-05-05 03:22 | 42.72553 | -120.30105 | 39839 ft | 535 kts | 212° |
| 2026-05-05 03:22 | 42.66323 | -120.35642 | 39833 ft | 534 kts | 211° |
| 2026-05-05 03:23 | 42.60105 | -120.41158 | 39831 ft | 534 kts | 211° |
| 2026-05-05 03:23 | 42.53882 | -120.46667 | 39831 ft | 533 kts | 211° |
| 2026-05-05 03:24 | 42.47601 | -120.52008 | 39827 ft | 532 kts | 207° |
| 2026-05-05 03:24 | 42.41160 | -120.56796 | 39824 ft | 532 kts | 207° |
| 2026-05-05 03:25 | 42.34690 | -120.61663 | 39823 ft | 531 kts | 207° |
| 2026-05-05 03:25 | 42.28215 | -120.66521 | 39811 ft | 531 kts | 207° |
| 2026-05-05 03:26 | 42.21741 | -120.71359 | 39823 ft | 531 kts | 207° |
| 2026-05-05 03:26 | 42.15319 | -120.76145 | 39840 ft | 531 kts | 206° |
| 2026-05-05 03:27 | 42.08850 | -120.80955 | 39820 ft | 531 kts | 206° |
| 2026-05-05 03:27 | 42.02385 | -120.85750 | 39812 ft | 530 kts | 206° |
| 2026-05-05 03:28 | 41.95910 | -120.90541 | 39824 ft | 530 kts | 206° |
| 2026-05-05 03:28 | 41.89436 | -120.95321 | 39813 ft | 530 kts | 206° |
| 2026-05-05 03:29 | 41.82976 | -121.00079 | 39816 ft | 530 kts | 206° |
| 2026-05-05 03:29 | 41.76550 | -121.04802 | 39820 ft | 529 kts | 206° |
| 2026-05-05 03:30 | 41.70101 | -121.09530 | 39703 ft | 524 kts | 207° |
| 2026-05-05 03:30 | 41.66906 | -121.11870 | 39161 ft | 524 kts | 206° |
| 2026-05-05 03:30 | 41.63701 | -121.14212 | 38922 ft | 526 kts | 206° |
| 2026-05-05 03:31 | 41.57239 | -121.18925 | 38853 ft | 534 kts | 206° |
| 2026-05-05 03:31 | 41.50712 | -121.23679 | 38880 ft | 534 kts | 206° |
| 2026-05-05 03:32 | 41.44177 | -121.28427 | 38886 ft | 534 kts | 206° |
| 2026-05-05 03:32 | 41.37654 | -121.33155 | 38906 ft | 533 kts | 206° |
| 2026-05-05 03:33 | 41.32244 | -121.37067 | 38916 ft | 533 kts | 206° |
| 2026-05-05 03:33 | 41.25709 | -121.41783 | 38914 ft | 533 kts | 206° |
| 2026-05-05 03:34 | 41.19228 | -121.46450 | 38925 ft | 532 kts | 206° |
| 2026-05-05 03:34 | 41.12702 | -121.51139 | 38923 ft | 532 kts | 206° |
| 2026-05-05 03:35 | 41.06191 | -121.55808 | 38918 ft | 533 kts | 205° |
| 2026-05-05 03:35 | 40.99665 | -121.60475 | 38925 ft | 533 kts | 205° |
| 2026-05-05 03:36 | 40.93128 | -121.65140 | 38948 ft | 532 kts | 206° |
| 2026-05-05 03:36 | 40.86651 | -121.69753 | 38949 ft | 532 kts | 205° |
| 2026-05-05 03:37 | 40.80121 | -121.74391 | 38947 ft | 533 kts | 205° |
| 2026-05-05 03:37 | 40.73584 | -121.79024 | 38969 ft | 533 kts | 206° |
| 2026-05-05 03:38 | 40.67046 | -121.83647 | 38985 ft | 533 kts | 206° |
| 2026-05-05 03:38 | 40.60509 | -121.88260 | 38981 ft | 533 kts | 206° |
| 2026-05-05 03:39 | 40.53967 | -121.92866 | 38984 ft | 532 kts | 206° |
| 2026-05-05 03:39 | 40.47433 | -121.97455 | 39009 ft | 531 kts | 206° |
| 2026-05-05 03:40 | 40.40957 | -122.01995 | 39005 ft | 530 kts | 206° |
| 2026-05-05 03:40 | 40.34445 | -122.06550 | 38997 ft | 529 kts | 206° |
| 2026-05-05 03:41 | 40.27942 | -122.11088 | 38996 ft | 529 kts | 205° |
| 2026-05-05 03:41 | 40.21435 | -122.15618 | 38980 ft | 529 kts | 205° |
| 2026-05-05 03:42 | 40.14923 | -122.20141 | 38980 ft | 528 kts | 205° |
| 2026-05-05 03:42 | 40.08231 | -122.23850 | 38977 ft | 524 kts | 194° |
| 2026-05-05 03:43 | 40.01214 | -122.26176 | 38971 ft | 518 kts | 188° |
| 2026-05-05 03:43 | 39.97709 | -122.27166 | 38783 ft | 512 kts | 188° |
| 2026-05-05 03:43 | 39.94225 | -122.28163 | 38272 ft | 510 kts | 188° |
| 2026-05-05 03:44 | 39.90749 | -122.29162 | 37860 ft | 512 kts | 188° |
| 2026-05-05 03:44 | 39.87260 | -122.30165 | 37453 ft | 515 kts | 188° |
| 2026-05-05 03:44 | 39.83760 | -122.31170 | 37049 ft | 516 kts | 188° |
| 2026-05-05 03:44 | 39.80245 | -122.32181 | 36675 ft | 515 kts | 188° |
| 2026-05-05 03:45 | 39.76747 | -122.33186 | 36296 ft | 514 kts | 188° |
| 2026-05-05 03:45 | 39.73236 | -122.34193 | 35914 ft | 516 kts | 188° |
| 2026-05-05 03:45 | 39.69729 | -122.35197 | 35546 ft | 516 kts | 188° |
| 2026-05-05 03:45 | 39.66265 | -122.36188 | 35188 ft | 516 kts | 188° |
| 2026-05-05 03:46 | 39.62751 | -122.37192 | 34823 ft | 517 kts | 188° |
| 2026-05-05 03:46 | 39.59238 | -122.38195 | 34493 ft | 516 kts | 188° |
| 2026-05-05 03:46 | 39.55745 | -122.39193 | 34131 ft | 513 kts | 188° |
| 2026-05-05 03:46 | 39.52258 | -122.40187 | 33757 ft | 511 kts | 188° |
| 2026-05-05 03:47 | 39.48795 | -122.41173 | 33374 ft | 507 kts | 188° |
| 2026-05-05 03:47 | 39.45350 | -122.42153 | 32995 ft | 503 kts | 188° |
| 2026-05-05 03:47 | 39.41958 | -122.43117 | 32624 ft | 500 kts | 188° |
| 2026-05-05 03:47 | 39.38552 | -122.44083 | 32274 ft | 497 kts | 188° |
| 2026-05-05 03:48 | 39.35175 | -122.45039 | 31913 ft | 496 kts | 188° |
| 2026-05-05 03:48 | 39.31807 | -122.45992 | 31553 ft | 494 kts | 188° |
| 2026-05-05 03:48 | 39.28467 | -122.46937 | 31204 ft | 490 kts | 188° |
| 2026-05-05 03:48 | 39.25142 | -122.47878 | 30855 ft | 486 kts | 188° |
| 2026-05-05 03:49 | 39.21852 | -122.48807 | 30518 ft | 482 kts | 189° |
| 2026-05-05 03:49 | 39.18598 | -122.49725 | 30203 ft | 479 kts | 188° |
| 2026-05-05 03:49 | 39.15366 | -122.50636 | 29836 ft | 481 kts | 188° |
| 2026-05-05 03:49 | 39.12100 | -122.51554 | 29449 ft | 479 kts | 188° |
| 2026-05-05 03:50 | 39.08862 | -122.52466 | 29056 ft | 475 kts | 188° |
| 2026-05-05 03:50 | 39.05636 | -122.53373 | 28674 ft | 472 kts | 188° |
| 2026-05-05 03:50 | 39.02441 | -122.54270 | 28296 ft | 468 kts | 188° |
| 2026-05-05 03:50 | 38.99244 | -122.55167 | 27919 ft | 467 kts | 188° |
| 2026-05-05 03:51 | 38.96078 | -122.56055 | 27571 ft | 465 kts | 188° |
| 2026-05-05 03:51 | 38.92960 | -122.56927 | 27212 ft | 463 kts | 188° |
| 2026-05-05 03:51 | 38.89817 | -122.57806 | 26852 ft | 461 kts | 188° |
| 2026-05-05 03:51 | 38.86694 | -122.58684 | 26503 ft | 459 kts | 188° |
| 2026-05-05 03:52 | 38.83585 | -122.59566 | 26148 ft | 456 kts | 188° |
| 2026-05-05 03:52 | 38.80490 | -122.60445 | 25806 ft | 454 kts | 188° |
| 2026-05-05 03:52 | 38.77410 | -122.61318 | 25467 ft | 452 kts | 188° |
| 2026-05-05 03:52 | 38.74358 | -122.62182 | 25148 ft | 450 kts | 188° |
| 2026-05-05 03:53 | 38.71286 | -122.63049 | 24813 ft | 448 kts | 188° |
| 2026-05-05 03:53 | 38.68238 | -122.63909 | 24483 ft | 446 kts | 188° |
| 2026-05-05 03:53 | 38.65213 | -122.64762 | 24153 ft | 444 kts | 188° |
| 2026-05-05 03:53 | 38.62214 | -122.65608 | 23834 ft | 436 kts | 188° |
| 2026-05-05 03:54 | 38.59317 | -122.66426 | 23504 ft | 428 kts | 188° |
| 2026-05-05 03:54 | 38.56427 | -122.67240 | 23123 ft | 424 kts | 188° |
| 2026-05-05 03:54 | 38.53544 | -122.68050 | 22767 ft | 422 kts | 188° |
| 2026-05-05 03:54 | 38.50676 | -122.68855 | 22394 ft | 420 kts | 188° |
| 2026-05-05 03:55 | 38.47873 | -122.69641 | 22034 ft | 418 kts | 188° |
| 2026-05-05 03:55 | 38.44995 | -122.70449 | 21668 ft | 415 kts | 188° |
| 2026-05-05 03:55 | 38.42185 | -122.71237 | 21311 ft | 413 kts | 188° |
| 2026-05-05 03:55 | 38.39386 | -122.72021 | 20954 ft | 410 kts | 188° |
| 2026-05-05 03:56 | 38.36606 | -122.72799 | 20608 ft | 408 kts | 188° |
| 2026-05-05 03:56 | 38.33842 | -122.73572 | 20265 ft | 405 kts | 188° |
| 2026-05-05 03:56 | 38.31089 | -122.74342 | 19931 ft | 406 kts | 188° |
| 2026-05-05 03:56 | 38.28327 | -122.75112 | 19591 ft | 405 kts | 188° |
| 2026-05-05 03:57 | 38.25619 | -122.75868 | 19262 ft | 402 kts | 188° |
| 2026-05-05 03:57 | 38.22875 | -122.76316 | 18940 ft | 393 kts | 176° |
| 2026-05-05 03:57 | 38.20179 | -122.76088 | 18665 ft | 385 kts | 165° |
| 2026-05-05 03:57 | 38.17586 | -122.75344 | 18391 ft | 380 kts | 160° |
| 2026-05-05 03:58 | 38.15017 | -122.74574 | 18068 ft | 379 kts | 161° |
| 2026-05-05 03:58 | 38.12443 | -122.73826 | 17773 ft | 377 kts | 162° |
| 2026-05-05 03:58 | 38.09910 | -122.73098 | 17449 ft | 371 kts | 162° |
| 2026-05-05 03:58 | 38.07395 | -122.72372 | 17139 ft | 370 kts | 162° |
| 2026-05-05 03:59 | 38.04879 | -122.71644 | 16828 ft | 370 kts | 162° |
| 2026-05-05 03:59 | 38.02368 | -122.70918 | 16523 ft | 368 kts | 162° |
| 2026-05-05 03:59 | 37.99904 | -122.70207 | 16220 ft | 366 kts | 162° |
| 2026-05-05 03:59 | 37.97415 | -122.69487 | 15837 ft | 365 kts | 162° |
| 2026-05-05 04:00 | 37.94942 | -122.68772 | 15377 ft | 363 kts | 162° |
| 2026-05-05 04:00 | 37.92479 | -122.68058 | 14906 ft | 361 kts | 161° |
| 2026-05-05 04:00 | 37.90149 | -122.67015 | 14460 ft | 352 kts | 149° |
| 2026-05-05 04:00 | 37.88082 | -122.65407 | 13898 ft | 344 kts | 137° |
| 2026-05-05 04:01 | 37.86279 | -122.63462 | 13297 ft | 340 kts | 134° |
| 2026-05-05 04:01 | 37.84491 | -122.61536 | 12781 ft | 336 kts | 135° |
| 2026-05-05 04:01 | 37.82713 | -122.59649 | 12283 ft | 330 kts | 136° |
| 2026-05-05 04:01 | 37.80975 | -122.57813 | 11771 ft | 322 kts | 137° |
| 2026-05-05 04:02 | 37.79277 | -122.56021 | 11304 ft | 313 kts | 137° |
| 2026-05-05 04:02 | 37.77637 | -122.54289 | 11070 ft | 301 kts | 137° |
| 2026-05-05 04:02 | 37.76038 | -122.52597 | 11025 ft | 298 kts | 137° |
| 2026-05-05 04:02 | 37.74460 | -122.50910 | 11007 ft | 296 kts | 133° |
| 2026-05-05 04:03 | 37.73297 | -122.48809 | 10999 ft | 289 kts | 109° |
| 2026-05-05 04:03 | 37.72715 | -122.46399 | 10744 ft | 288 kts | 103° |
| 2026-05-05 04:03 | 37.72185 | -122.44003 | 10375 ft | 286 kts | 103° |
| 2026-05-05 04:03 | 37.71656 | -122.41571 | 9940 ft | 286 kts | 103° |
| 2026-05-05 04:04 | 37.71144 | -122.39174 | 9506 ft | 283 kts | 103° |
| 2026-05-05 04:04 | 37.70629 | -122.36766 | 9011 ft | 282 kts | 103° |
| 2026-05-05 04:04 | 37.70123 | -122.34381 | 8564 ft | 280 kts | 103° |
| 2026-05-05 04:04 | 37.69640 | -122.31984 | 8057 ft | 282 kts | 103° |
| 2026-05-05 04:05 | 37.69176 | -122.29587 | 7620 ft | 280 kts | 103° |
| 2026-05-05 04:05 | 37.68730 | -122.27216 | 7200 ft | 278 kts | 103° |
| 2026-05-05 04:05 | 37.68302 | -122.24861 | 6774 ft | 277 kts | 103° |
| 2026-05-05 04:05 | 37.67899 | -122.22503 | 6471 ft | 272 kts | 103° |
| 2026-05-05 04:06 | 37.67529 | -122.20166 | 6119 ft | 272 kts | 102° |
| 2026-05-05 04:06 | 37.67152 | -122.17830 | 6014 ft | 270 kts | 103° |
| 2026-05-05 04:06 | 37.66602 | -122.15585 | 5901 ft | 267 kts | 121° |
| 2026-05-05 04:06 | 37.65456 | -122.13796 | 5858 ft | 258 kts | 133° |
| 2026-05-05 04:07 | 37.64282 | -122.12146 | 5735 ft | 247 kts | 133° |
| 2026-05-05 04:07 | 37.63141 | -122.10541 | 5438 ft | 245 kts | 133° |
| 2026-05-05 04:07 | 37.62020 | -122.08951 | 5140 ft | 237 kts | 133° |
| 2026-05-05 04:07 | 37.60966 | -122.07424 | 4902 ft | 227 kts | 133° |
| 2026-05-05 04:08 | 37.59868 | -122.06039 | 4605 ft | 220 kts | 152° |
| 2026-05-05 04:08 | 37.58438 | -122.05507 | 4370 ft | 215 kts | 185° |
| 2026-05-05 04:08 | 37.56968 | -122.05785 | 4162 ft | 216 kts | 193° |
| 2026-05-05 04:08 | 37.55492 | -122.06138 | 4020 ft | 217 kts | 193° |
| 2026-05-05 04:09 | 37.54002 | -122.06492 | 3836 ft | 215 kts | 195° |
| 2026-05-05 04:09 | 37.52690 | -122.07321 | 3646 ft | 211 kts | 227° |
| 2026-05-05 04:09 | 37.52006 | -122.08908 | 3503 ft | 209 kts | 260° |
| 2026-05-05 04:09 | 37.51795 | -122.10692 | 3356 ft | 208 kts | 263° |
| 2026-05-05 04:10 | 37.51833 | -122.12512 | 3206 ft | 209 kts | 283° |
| 2026-05-05 04:10 | 37.52325 | -122.14202 | 3051 ft | 203 kts | 295° |
| 2026-05-05 04:10 | 37.52970 | -122.15731 | 3007 ft | 191 kts | 297° |
| 2026-05-05 04:10 | 37.53565 | -122.17137 | 3010 ft | 168 kts | 296° |
| 2026-05-05 04:11 | 37.54087 | -122.18381 | 3009 ft | 156 kts | 296° |
| 2026-05-05 04:11 | 37.54588 | -122.19576 | 2919 ft | 154 kts | 297° |
| 2026-05-05 04:11 | 37.55088 | -122.20768 | 2716 ft | 154 kts | 296° |
| 2026-05-05 04:11 | 37.55588 | -122.21962 | 2506 ft | 154 kts | 297° |
| 2026-05-05 04:12 | 37.56085 | -122.23145 | 2308 ft | 152 kts | 297° |
| 2026-05-05 04:12 | 37.56582 | -122.24329 | 2101 ft | 152 kts | 296° |
| 2026-05-05 04:12 | 37.57076 | -122.25507 | 1888 ft | 151 kts | 296° |
| 2026-05-05 04:12 | 37.57545 | -122.26623 | 1685 ft | 137 kts | 297° |
| 2026-05-05 04:13 | 37.57968 | -122.27633 | 1495 ft | 128 kts | 297° |
| 2026-05-05 04:13 | 37.58381 | -122.28618 | 1332 ft | 126 kts | 296° |
| 2026-05-05 04:13 | 37.58791 | -122.29598 | 1149 ft | 127 kts | 297° |
| 2026-05-05 04:13 | 37.59204 | -122.30566 | 974 ft | 124 kts | 296° |
| 2026-05-05 04:14 | 37.59611 | -122.31532 | 802 ft | 127 kts | 295° |
| 2026-05-05 04:14 | 37.60001 | -122.32526 | 659 ft | 129 kts | 298° |
| 2026-05-05 04:14 | 37.60423 | -122.33523 | 472 ft | 127 kts | 298° |
| 2026-05-05 04:14 | 37.60842 | -122.34499 | 305 ft | 127 kts | 298° |
| 2026-05-05 04:15 | 37.61253 | -122.35484 | 122 ft | 126 kts | 298° |
| 2026-05-05 04:15 | 37.61653 | -122.36425 | 28 ft | 106 kts | 297° |
| 2026-05-05 04:15 | 37.61926 | -122.37082 | 27 ft | 67 kts | 298° |
| 2026-05-05 04:15 | 37.62101 | -122.37502 | 27 ft | 45 kts | 298° |
| 2026-05-05 04:16 | 37.62210 | -122.37793 | 27 ft | 31 kts | 285° |
| 2026-05-05 04:16 | 37.62229 | -122.38020 | 27 ft | 17 kts | 267° |
| 2026-05-05 04:16 | 37.62226 | -122.38078 | 27 ft | 0 kts | 267° |
| 2026-05-05 04:17 | 37.62225 | -122.38111 | 27 ft | 7 kts | 267° |
| 2026-05-05 04:17 | 37.62212 | -122.38174 | 27 ft | 8 kts | 224° |
| 2026-05-05 04:17 | 37.62149 | -122.38218 | 27 ft | 12 kts | 207° |
| 2026-05-05 04:17 | 37.62099 | -122.38255 | 27 ft | 7 kts | 229° |
| 2026-05-05 04:18 | 37.62090 | -122.38319 | 27 ft | 9 kts | 287° |
| 2026-05-05 04:18 | 37.62123 | -122.38402 | 27 ft | 12 kts | 298° |
| 2026-05-05 04:18 | 37.62168 | -122.38510 | 27 ft | 15 kts | 297° |
| 2026-05-05 04:18 | 37.62217 | -122.38628 | 27 ft | 12 kts | 297° |
| 2026-05-05 04:19 | 37.62244 | -122.38694 | 27 ft | 14 kts | 298° |
| 2026-05-05 04:19 | 37.62270 | -122.38755 | 27 ft | 6 kts | 298° |
| 2026-05-05 04:19 | 37.62283 | -122.38803 | 27 ft | 5 kts | 253° |
| 2026-05-05 04:19 | 37.62255 | -122.38876 | 27 ft | 9 kts | 272° |
| 2026-05-05 04:20 | 37.62265 | -122.38932 | 27 ft | 10 kts | 276° |
| 2026-05-05 04:20 | 37.62247 | -122.39026 | 27 ft | 12 kts | 251° |
| 2026-05-05 04:20 | 37.62223 | -122.39104 | 27 ft | 8 kts | 228° |
| 2026-05-05 04:20 | 37.62164 | -122.39151 | 27 ft | 12 kts | 207° |
| 2026-05-05 04:21 | 37.62089 | -122.39199 | 27 ft | 12 kts | 207° |
| 2026-05-05 04:21 | 37.62022 | -122.39248 | 27 ft | 8 kts | 219° |
| 2026-05-05 04:21 | 37.61984 | -122.39286 | 27 ft | 6 kts | 210° |
| 2026-05-05 04:21 | 37.61953 | -122.39307 | 27 ft | 5 kts | 208° |
| 2026-05-05 04:22 | 37.61932 | -122.39321 | 27 ft | 1 kts | 208° |
| 2026-05-05 04:22 | 37.61926 | -122.39325 | 27 ft | 0 kts | 208° |